createdAt,value
2018-04-30T00:01:45.425Z,8.80
2018-04-30T00:04:12.970Z,8.27
2018-04-30T00:06:40.484Z,7.40
2018-04-30T00:09:08.809Z,8.70
2018-04-30T00:11:36.325Z,8.90
2018-04-30T00:14:04.603Z,8.63
2018-04-30T00:16:32.908Z,7.83
2018-04-30T00:19:00.416Z,8.60
2018-04-30T00:21:27.948Z,7.97
2018-04-30T00:23:55.472Z,10.40
2018-04-30T00:26:23.790Z,9.60
2018-04-30T00:28:51.317Z,10.53
2018-04-30T00:31:18.859Z,9.77
2018-04-30T00:33:47.141Z,9.60
2018-04-30T00:36:15.443Z,10.13
2018-04-30T00:38:42.963Z,9.27
2018-04-30T00:41:10.496Z,8.00
2018-04-30T00:43:38.016Z,9.70
2018-04-30T00:46:05.556Z,9.00
2018-04-30T00:48:33.849Z,9.47
2018-04-30T00:51:02.161Z,9.30
2018-04-30T00:53:29.676Z,9.80
2018-04-30T00:55:57.193Z,9.47
2018-04-30T00:58:24.740Z,9.97
2018-04-30T01:00:52.264Z,10.57
2018-04-30T01:03:20.656Z,10.23
2018-04-30T01:05:48.115Z,10.27
2018-04-30T01:08:16.425Z,10.10
2018-04-30T01:10:43.946Z,9.70
2018-04-30T01:13:12.248Z,10.10
2018-04-30T01:15:39.765Z,9.73
2018-04-30T01:18:07.300Z,9.23
2018-04-30T01:20:34.819Z,11.80
2018-04-30T01:23:03.124Z,11.93
2018-04-30T01:25:30.643Z,10.80
2018-04-30T01:27:58.189Z,10.07
2018-04-30T01:30:25.713Z,9.33
2018-04-30T01:32:53.274Z,9.10
2018-04-30T01:35:20.788Z,9.13
2018-04-30T01:37:48.307Z,9.50
2018-04-30T01:40:15.858Z,12.20
2018-04-30T01:42:43.377Z,10.80
2018-04-30T01:45:10.916Z,10.13
2018-04-30T01:47:38.436Z,10.57
2018-04-30T01:50:05.973Z,13.70
2018-04-30T01:52:34.264Z,12.60
2018-04-30T01:55:02.573Z,12.23
2018-04-30T01:57:30.092Z,11.63
2018-04-30T01:59:58.397Z,9.40
2018-04-30T02:02:25.924Z,10.30
2018-04-30T02:04:53.461Z,9.20
2018-04-30T02:07:20.979Z,8.87
2018-04-30T02:09:48.520Z,7.00
2018-04-30T02:12:16.036Z,6.23
2018-04-30T02:14:43.576Z,5.23
2018-04-30T02:17:17.024Z,4.97
2018-04-30T02:19:44.561Z,4.50
2018-04-30T02:22:12.080Z,4.33
2018-04-30T02:24:40.387Z,4.40
2018-04-30T02:27:07.907Z,4.30
2018-04-30T02:29:36.189Z,3.10
2018-04-30T02:32:04.492Z,4.07
2018-04-30T02:34:32.000Z,3.43
2018-04-30T02:36:59.539Z,2.50
2018-04-30T02:39:27.067Z,2.40
2018-04-30T02:41:54.608Z,2.67
2018-04-30T02:44:22.121Z,2.50
2018-04-30T02:46:49.697Z,2.37
2018-04-30T02:49:17.220Z,2.40
2018-04-30T02:51:44.754Z,2.47
2018-04-30T02:54:13.032Z,2.30
2018-04-30T02:56:40.658Z,2.20
2018-04-30T02:59:08.885Z,1.80
2018-04-30T03:01:37.202Z,1.37
2018-04-30T03:04:04.724Z,1.63
2018-04-30T03:06:33.038Z,1.90
2018-04-30T03:09:00.566Z,1.47
2018-04-30T03:11:28.846Z,1.27
2018-04-30T03:13:57.153Z,1.60
2018-04-30T03:16:24.665Z,1.30
2018-04-30T03:18:52.201Z,1.43
2018-04-30T03:21:19.720Z,2.37
2018-04-30T03:23:47.263Z,1.00
2018-04-30T03:26:15.544Z,1.20
2018-04-30T03:28:43.853Z,1.23
2018-04-30T03:31:11.373Z,1.10
2018-04-30T03:33:38.919Z,1.57
2018-04-30T03:36:06.443Z,1.53
2018-04-30T03:38:33.993Z,1.20
2018-04-30T03:41:01.513Z,1.10
2018-04-30T03:43:29.028Z,1.20
2018-04-30T03:45:56.564Z,0.70
2018-04-30T03:48:24.090Z,1.43
2018-04-30T03:50:51.624Z,1.40
2018-04-30T03:53:19.144Z,0.80
2018-04-30T03:55:47.443Z,1.20
2018-04-30T03:58:14.959Z,1.40
2018-04-30T04:00:54.300Z,0.80
2018-04-30T04:03:35.331Z,0.60
2018-04-30T04:06:14.768Z,0.93
2018-04-30T04:08:42.303Z,1.83
2018-04-30T04:11:10.609Z,1.17
2018-04-30T04:13:38.124Z,0.80
2018-04-30T04:16:05.662Z,1.07
2018-04-30T04:18:33.176Z,1.00
2018-04-30T04:21:00.703Z,1.27
2018-04-30T04:23:28.237Z,1.17
2018-04-30T04:25:55.764Z,0.73
2018-04-30T04:28:23.301Z,0.90
2018-04-30T04:30:51.590Z,0.80
2018-04-30T04:33:19.888Z,0.70
2018-04-30T04:35:47.408Z,0.70
2018-04-30T04:38:14.949Z,0.80
2018-04-30T04:40:42.468Z,0.97
2018-04-30T04:43:10.005Z,1.20
2018-04-30T04:45:38.284Z,0.53
2018-04-30T04:48:06.587Z,0.80
2018-04-30T04:50:34.113Z,1.07
2018-04-30T04:53:01.654Z,1.20
2018-04-30T04:55:29.180Z,0.70
2018-04-30T04:57:56.720Z,0.80
2018-04-30T05:00:25.006Z,0.50
2018-04-30T05:02:52.541Z,0.83
2018-04-30T05:05:20.063Z,0.80
2018-04-30T05:07:47.599Z,1.03
2018-04-30T05:10:15.128Z,0.60
2018-04-30T05:12:42.673Z,1.27
2018-04-30T05:15:10.194Z,0.90
2018-04-30T05:17:37.710Z,0.90
2018-04-30T05:20:06.041Z,0.87
2018-04-30T05:22:33.564Z,0.70
2018-04-30T05:25:01.868Z,1.03
2018-04-30T05:27:29.379Z,1.00
2018-04-30T05:29:56.918Z,0.60
2018-04-30T05:32:24.434Z,0.60
2018-04-30T05:34:51.969Z,0.60
2018-04-30T05:37:19.489Z,0.50
2018-04-30T05:39:47.027Z,1.30
2018-04-30T05:42:14.553Z,0.60
2018-04-30T05:44:42.100Z,0.50
2018-04-30T05:47:09.617Z,0.40
2018-04-30T05:49:37.148Z,0.53
2018-04-30T05:52:05.441Z,0.57
2018-04-30T05:54:32.989Z,0.70
2018-04-30T05:57:01.269Z,0.60
2018-04-30T05:59:29.573Z,0.50
2018-04-30T06:01:57.093Z,0.60
2018-04-30T06:04:24.613Z,0.90
2018-04-30T06:06:52.178Z,0.40
2018-04-30T06:09:19.689Z,0.43
2018-04-30T06:11:48.000Z,0.40
2018-04-30T06:14:15.520Z,0.40
2018-04-30T06:16:43.053Z,0.40
2018-04-30T06:19:10.565Z,0.50
2018-04-30T06:21:38.926Z,0.40
2018-04-30T06:24:08.142Z,0.40
2018-04-30T06:26:38.256Z,0.50
2018-04-30T06:29:06.008Z,0.60
2018-04-30T06:31:33.546Z,0.40
2018-04-30T06:34:01.065Z,0.40
2018-04-30T06:36:28.600Z,0.40
2018-04-30T06:38:56.116Z,0.30
2018-04-30T06:41:23.672Z,0.40
2018-04-30T06:43:51.193Z,0.43
2018-04-30T06:46:19.478Z,0.57
2018-04-30T06:48:47.781Z,0.83
2018-04-30T06:51:15.304Z,0.40
2018-04-30T06:53:43.612Z,0.40
2018-04-30T06:56:11.133Z,0.43
2018-04-30T06:58:38.674Z,0.50
2018-04-30T07:01:06.193Z,0.60
2018-04-30T07:03:33.728Z,0.63
2018-04-30T07:06:01.251Z,0.40
2018-04-30T07:08:28.797Z,1.47
2018-04-30T07:10:56.320Z,0.33
2018-04-30T07:13:24.620Z,0.60
2018-04-30T07:15:52.140Z,0.43
2018-04-30T07:18:19.676Z,0.40
2018-04-30T07:20:47.192Z,0.50
2018-04-30T07:23:15.500Z,0.50
2018-04-30T07:25:43.015Z,0.80
2018-04-30T07:28:10.537Z,0.50
2018-04-30T07:30:38.091Z,0.40
2018-04-30T07:33:05.645Z,0.40
2018-04-30T07:35:33.177Z,0.50
2018-04-30T07:38:01.459Z,0.50
2018-04-30T07:40:29.765Z,0.53
2018-04-30T07:42:59.397Z,0.40
2018-04-30T07:45:27.133Z,0.50
2018-04-30T07:47:54.731Z,1.00
2018-04-30T07:50:22.268Z,0.60
2018-04-30T07:52:49.784Z,0.77
2018-04-30T07:55:18.084Z,0.73
2018-04-30T07:57:45.602Z,0.70
2018-04-30T08:00:13.148Z,0.60
2018-04-30T08:02:40.663Z,0.50
2018-04-30T08:05:08.979Z,0.50
2018-04-30T08:07:36.496Z,0.70
2018-04-30T08:10:04.778Z,0.60
2018-04-30T08:12:33.080Z,0.70
2018-04-30T08:15:00.597Z,1.10
2018-04-30T08:17:28.132Z,0.60
2018-04-30T08:19:55.648Z,0.80
2018-04-30T08:22:23.189Z,0.80
2018-04-30T08:24:50.704Z,0.90
2018-04-30T08:27:18.252Z,0.80
2018-04-30T08:29:45.777Z,0.67
2018-04-30T08:32:14.089Z,0.93
2018-04-30T08:34:41.654Z,0.70
2018-04-30T08:37:09.185Z,0.70
2018-04-30T08:39:37.505Z,0.60
2018-04-30T08:42:05.055Z,0.93
2018-04-30T08:44:32.625Z,0.77
2018-04-30T08:47:00.168Z,1.00
2018-04-30T08:49:27.689Z,1.00
2018-04-30T08:51:55.215Z,0.70
2018-04-30T08:54:22.754Z,0.87
2018-04-30T08:56:50.277Z,0.63
2018-04-30T08:59:17.813Z,1.43
2018-04-30T09:01:45.331Z,1.00
2018-04-30T09:04:13.634Z,0.87
2018-04-30T09:06:41.151Z,0.90
2018-04-30T09:09:08.689Z,0.67
2018-04-30T09:11:36.210Z,0.70
2018-04-30T09:14:03.749Z,0.80
2018-04-30T09:16:31.297Z,0.90
2018-04-30T09:18:58.845Z,0.90
2018-04-30T09:21:26.364Z,1.00
2018-04-30T09:23:53.958Z,0.80
2018-04-30T09:26:21.592Z,0.80
2018-04-30T09:28:49.111Z,1.27
2018-04-30T09:31:17.421Z,1.43
2018-04-30T09:33:44.944Z,0.63
2018-04-30T09:36:12.489Z,1.07
2018-04-30T09:38:40.017Z,0.80
2018-04-30T09:41:07.560Z,1.13
2018-04-30T09:43:35.081Z,0.70
2018-04-30T09:46:02.620Z,1.00
2018-04-30T09:48:30.147Z,1.00
2018-04-30T09:50:57.693Z,0.80
2018-04-30T09:53:26.006Z,0.80
2018-04-30T09:55:53.563Z,0.87
2018-04-30T09:58:21.080Z,0.70
2018-04-30T10:00:49.392Z,0.57
2018-04-30T10:03:16.912Z,0.70
2018-04-30T10:05:45.197Z,0.60
2018-04-30T10:08:13.505Z,0.90
2018-04-30T10:10:41.020Z,0.90
2018-04-30T10:13:08.577Z,0.67
2018-04-30T10:15:36.095Z,1.07
2018-04-30T10:18:03.642Z,0.80
2018-04-30T10:20:31.165Z,0.80
2018-04-30T10:22:58.708Z,0.83
2018-04-30T10:25:26.234Z,0.73
2018-04-30T10:27:53.812Z,0.50
2018-04-30T10:30:21.328Z,0.57
2018-04-30T10:32:49.627Z,0.43
2018-04-30T10:35:17.140Z,0.70
2018-04-30T10:37:44.721Z,0.40
2018-04-30T10:40:12.231Z,0.60
2018-04-30T10:42:39.754Z,0.70
2018-04-30T10:45:08.060Z,0.50
2018-04-30T10:47:35.577Z,0.67
2018-04-30T10:50:03.118Z,0.50
2018-04-30T10:52:30.753Z,0.70
2018-04-30T10:54:58.294Z,0.70
2018-04-30T10:57:25.816Z,0.33
2018-04-30T10:59:53.352Z,0.83
2018-04-30T11:02:20.865Z,0.70
2018-04-30T11:04:48.453Z,0.60
2018-04-30T11:07:16.011Z,0.63
2018-04-30T11:09:43.577Z,0.70
2018-04-30T11:12:11.088Z,0.90
2018-04-30T11:14:38.624Z,0.50
2018-04-30T11:17:06.143Z,0.67
2018-04-30T11:19:33.724Z,0.83
2018-04-30T11:22:01.264Z,0.87
2018-04-30T11:24:28.784Z,0.60
2018-04-30T11:26:56.411Z,0.70
2018-04-30T11:29:23.928Z,0.97
2018-04-30T11:31:52.227Z,0.47
2018-04-30T11:34:19.756Z,0.97
2018-04-30T11:36:48.067Z,0.50
2018-04-30T11:39:15.647Z,0.50
2018-04-30T11:41:43.318Z,0.47
2018-04-30T11:44:10.855Z,0.60
2018-04-30T11:46:38.412Z,0.60
2018-04-30T11:49:05.944Z,0.40
2018-04-30T11:51:33.500Z,0.40
2018-04-30T11:54:01.036Z,0.50
2018-04-30T11:56:28.577Z,0.53
2018-04-30T11:58:56.116Z,0.70
2018-04-30T12:01:24.528Z,0.57
2018-04-30T12:03:52.057Z,0.50
2018-04-30T12:06:19.594Z,0.50
2018-04-30T12:08:47.141Z,0.50
2018-04-30T12:11:14.780Z,0.40
2018-04-30T12:13:42.336Z,0.50
2018-04-30T12:16:09.901Z,0.40
2018-04-30T12:18:37.468Z,0.50
2018-04-30T12:21:04.984Z,0.50
2018-04-30T12:23:33.301Z,0.50
2018-04-30T12:26:00.841Z,0.63
2018-04-30T12:28:28.424Z,0.43
2018-04-30T12:30:55.953Z,0.50
2018-04-30T12:33:24.336Z,0.50
2018-04-30T12:35:52.619Z,0.60
2018-04-30T12:38:20.180Z,0.63
2018-04-30T12:40:47.709Z,0.57
2018-04-30T12:43:15.231Z,0.70
2018-04-30T12:45:42.808Z,0.70
2018-04-30T12:48:10.350Z,0.80
2018-04-30T12:50:37.913Z,0.53
2018-04-30T12:53:05.435Z,0.80
2018-04-30T12:55:33.743Z,0.50
2018-04-30T12:58:01.269Z,0.57
2018-04-30T13:00:29.592Z,0.50
2018-04-30T13:02:57.153Z,0.77
2018-04-30T13:05:24.705Z,0.50
2018-04-30T13:07:52.239Z,0.50
2018-04-30T13:10:19.792Z,0.40
2018-04-30T13:12:48.097Z,0.63
2018-04-30T13:15:15.704Z,0.53
2018-04-30T13:17:43.224Z,0.60
2018-04-30T13:20:10.760Z,0.70
2018-04-30T13:22:39.045Z,0.97
2018-04-30T13:25:07.364Z,0.50
2018-04-30T13:27:34.925Z,0.50
2018-04-30T13:30:02.446Z,0.73
2018-04-30T13:32:30.753Z,0.73
2018-04-30T13:34:58.277Z,0.40
2018-04-30T13:37:25.812Z,0.70
2018-04-30T13:39:53.332Z,0.60
2018-04-30T13:42:20.924Z,0.60
2018-04-30T13:44:48.440Z,0.90
2018-04-30T13:47:16.744Z,0.43
2018-04-30T13:49:44.265Z,0.63
2018-04-30T13:52:11.800Z,0.60
2018-04-30T13:54:39.354Z,0.60
2018-04-30T13:57:06.891Z,0.70
2018-04-30T13:59:34.413Z,0.50
2018-04-30T14:02:01.953Z,0.40
2018-04-30T14:04:29.474Z,0.60
2018-04-30T14:06:57.019Z,0.40
2018-04-30T14:09:25.305Z,0.60
2018-04-30T14:11:52.853Z,0.47
2018-04-30T14:14:21.133Z,0.53
2018-04-30T14:16:49.441Z,0.77
2018-04-30T14:19:16.982Z,0.63
2018-04-30T14:21:44.509Z,0.90
2018-04-30T14:24:12.049Z,0.60
2018-04-30T14:26:39.565Z,0.40
2018-04-30T14:29:07.100Z,0.50
2018-04-30T14:31:34.649Z,0.70
2018-04-30T14:34:02.169Z,0.67
2018-04-30T14:36:29.691Z,0.67
2018-04-30T14:38:57.991Z,0.50
2018-04-30T14:41:25.572Z,0.60
2018-04-30T14:43:53.112Z,0.80
2018-04-30T14:46:20.694Z,0.43
2018-04-30T14:48:48.234Z,0.60
2018-04-30T14:51:16.518Z,0.50
2018-04-30T14:53:44.081Z,1.10
2018-04-30T14:56:11.660Z,0.40
2018-04-30T14:58:39.176Z,0.60
2018-04-30T15:01:07.479Z,0.70
2018-04-30T15:03:34.995Z,0.70
2018-04-30T15:06:02.529Z,0.70
2018-04-30T15:08:30.052Z,0.67
2018-04-30T15:10:58.353Z,0.50
2018-04-30T15:13:25.889Z,0.50
2018-04-30T15:15:54.194Z,0.60
2018-04-30T15:18:21.712Z,0.40
2018-04-30T15:20:49.248Z,0.60
2018-04-30T15:23:16.781Z,0.47
2018-04-30T15:25:44.329Z,0.40
2018-04-30T15:28:11.907Z,0.50
2018-04-30T15:30:39.417Z,0.30
2018-04-30T15:33:06.930Z,0.70
2018-04-30T15:35:34.455Z,0.50
2018-04-30T15:38:02.763Z,0.60
2018-04-30T15:40:30.276Z,0.80
2018-04-30T15:42:57.809Z,0.33
2018-04-30T15:45:25.329Z,0.50
2018-04-30T15:47:52.869Z,0.50
2018-04-30T15:50:21.158Z,0.40
2018-04-30T15:52:49.457Z,0.93
2018-04-30T15:55:17.021Z,0.50
2018-04-30T15:57:44.561Z,0.40
2018-04-30T16:00:12.844Z,0.60
2018-04-30T16:02:41.148Z,0.60
2018-04-30T16:05:08.716Z,0.47
2018-04-30T16:07:36.256Z,0.60
2018-04-30T16:10:03.776Z,0.50
2018-04-30T16:12:31.321Z,0.60
2018-04-30T16:14:58.836Z,0.70
2018-04-30T16:17:27.125Z,0.47
2018-04-30T16:19:54.665Z,0.60
2018-04-30T16:22:22.947Z,0.60
2018-04-30T16:24:51.254Z,0.73
2018-04-30T16:27:18.785Z,0.60
2018-04-30T16:29:47.094Z,0.50
2018-04-30T16:32:14.611Z,0.63
2018-04-30T16:34:42.219Z,0.73
2018-04-30T16:37:09.736Z,0.50
2018-04-30T16:39:37.280Z,0.50
2018-04-30T16:42:05.573Z,1.20
2018-04-30T16:44:33.112Z,0.40
2018-04-30T16:47:00.633Z,0.67
2018-04-30T16:49:28.174Z,0.67
2018-04-30T16:51:56.491Z,0.50
2018-04-30T16:54:24.032Z,0.67
2018-04-30T16:56:52.320Z,0.67
2018-04-30T16:59:19.844Z,0.70
2018-04-30T17:01:47.377Z,0.60
2018-04-30T17:04:14.892Z,0.70
2018-04-30T17:06:43.205Z,0.60
2018-04-30T17:09:10.724Z,0.70
2018-04-30T17:11:39.029Z,0.47
2018-04-30T17:14:06.548Z,0.50
2018-04-30T17:16:34.853Z,0.60
2018-04-30T17:19:02.860Z,0.63
2018-04-30T17:21:30.400Z,0.60
2018-04-30T17:23:57.919Z,0.53
2018-04-30T17:26:25.466Z,0.57
2018-04-30T17:28:52.989Z,0.77
2018-04-30T17:31:20.532Z,0.63
2018-04-30T17:33:48.055Z,0.50
2018-04-30T17:36:15.598Z,0.77
2018-04-30T17:38:43.132Z,1.00
2018-04-30T17:41:10.675Z,0.50
2018-04-30T17:43:38.192Z,0.60
2018-04-30T17:46:05.711Z,0.80
2018-04-30T17:48:33.252Z,0.53
2018-04-30T17:51:00.780Z,0.50
2018-04-30T17:53:28.313Z,0.70
2018-04-30T17:55:55.852Z,0.40
2018-04-30T17:58:23.390Z,0.50
2018-04-30T18:00:51.669Z,0.50
2018-04-30T18:03:19.972Z,0.50
2018-04-30T18:05:47.493Z,0.60
2018-04-30T18:08:15.814Z,0.60
2018-04-30T18:10:43.372Z,0.73
2018-04-30T18:13:10.928Z,0.80
2018-04-30T18:15:38.453Z,0.60
2018-04-30T18:18:05.990Z,0.93
2018-04-30T18:20:33.513Z,0.80
2018-04-30T18:23:01.188Z,0.67
2018-04-30T18:25:28.708Z,0.70
2018-04-30T18:27:56.999Z,0.83
2018-04-30T18:30:25.301Z,0.60
2018-04-30T18:32:52.820Z,0.77
2018-04-30T18:35:20.359Z,0.67
2018-04-30T18:37:47.877Z,1.03
2018-04-30T18:40:15.500Z,0.57
2018-04-30T18:42:42.956Z,0.70
2018-04-30T18:45:10.491Z,0.70
2018-04-30T18:47:38.033Z,0.50
2018-04-30T18:50:05.572Z,1.57
2018-04-30T18:52:33.089Z,0.80
2018-04-30T18:55:01.428Z,0.73
2018-04-30T18:57:28.943Z,0.50
2018-04-30T18:59:56.485Z,0.70
2018-04-30T19:02:24.004Z,0.60
2018-04-30T19:04:51.576Z,0.43
2018-04-30T19:07:19.096Z,0.60
2018-04-30T19:09:48.340Z,0.40
2018-04-30T19:12:15.908Z,0.60
2018-04-30T19:14:43.475Z,0.97
2018-04-30T19:17:10.997Z,0.50
2018-04-30T19:19:39.287Z,0.50
2018-04-30T19:22:06.869Z,0.93
2018-04-30T19:24:34.428Z,0.50
2018-04-30T19:27:01.989Z,0.50
2018-04-30T19:29:29.508Z,0.50
2018-04-30T19:31:57.828Z,0.70
2018-04-30T19:34:25.355Z,0.60
2018-04-30T19:36:53.666Z,0.40
2018-04-30T19:39:21.236Z,0.40
2018-04-30T19:41:48.772Z,0.40
2018-04-30T19:44:17.057Z,0.60
2018-04-30T19:46:44.606Z,0.83
2018-04-30T19:49:12.140Z,0.43
2018-04-30T19:51:40.439Z,0.50
2018-04-30T19:54:08.721Z,0.40
2018-04-30T19:56:37.026Z,0.60
2018-04-30T19:59:04.604Z,0.60
2018-04-30T20:01:32.144Z,0.60
2018-04-30T20:03:59.721Z,0.60
2018-04-30T20:06:27.241Z,0.50
2018-04-30T20:08:55.556Z,0.70
2018-04-30T20:11:23.079Z,0.77
2018-04-30T20:13:50.685Z,0.60
2018-04-30T20:16:18.200Z,0.60
2018-04-30T20:18:47.249Z,0.77
2018-04-30T20:21:14.768Z,0.60
2018-04-30T20:23:43.079Z,0.60
2018-04-30T20:26:10.688Z,0.70
2018-04-30T20:28:38.316Z,0.53
2018-04-30T20:31:05.841Z,0.53
2018-04-30T20:33:34.259Z,0.60
2018-04-30T20:36:01.778Z,0.50
2018-04-30T20:38:30.080Z,0.40
2018-04-30T20:40:57.656Z,0.70
2018-04-30T20:43:25.224Z,0.57
2018-04-30T20:45:52.756Z,0.43
2018-04-30T20:48:21.041Z,0.90
2018-04-30T20:50:48.654Z,0.50
2018-04-30T20:53:16.182Z,0.67
2018-04-30T20:55:43.728Z,0.73
2018-04-30T20:58:11.252Z,0.50
2018-04-30T21:00:38.801Z,0.67
2018-04-30T21:03:06.333Z,0.40
2018-04-30T21:05:33.868Z,0.60
2018-04-30T21:08:02.149Z,0.90
2018-04-30T21:10:29.698Z,0.67
2018-04-30T21:12:57.979Z,0.70
2018-04-30T21:15:26.282Z,0.50
2018-04-30T21:17:53.812Z,1.17
2018-04-30T21:20:22.131Z,0.40
2018-04-30T21:22:49.649Z,0.60
2018-04-30T21:25:17.936Z,0.73
2018-04-30T21:27:46.236Z,0.83
2018-04-30T21:30:13.807Z,0.77
2018-04-30T21:32:41.340Z,0.50
2018-04-30T21:35:09.645Z,0.60
2018-04-30T21:37:37.180Z,0.70
2018-04-30T21:40:05.513Z,0.50
2018-04-30T21:42:33.025Z,0.57
2018-04-30T21:45:00.613Z,0.80
2018-04-30T21:47:28.224Z,0.80
2018-04-30T21:49:55.688Z,0.50
2018-04-30T21:52:23.220Z,0.40
2018-04-30T21:54:50.736Z,0.60
2018-04-30T21:57:18.267Z,0.70
2018-04-30T21:59:45.789Z,0.57
2018-04-30T22:02:13.337Z,0.70
2018-04-30T22:04:40.856Z,0.60
2018-04-30T22:07:09.140Z,0.50
2018-04-30T22:09:37.441Z,0.50
2018-04-30T22:12:04.989Z,1.00
2018-04-30T22:14:33.295Z,0.50
2018-04-30T22:17:00.861Z,0.70
2018-04-30T22:19:28.396Z,0.90
2018-04-30T22:21:56.681Z,1.27
2018-04-30T22:24:24.223Z,0.53
2018-04-30T22:26:52.516Z,0.70
2018-04-30T22:29:20.816Z,0.60
2018-04-30T22:31:48.329Z,0.50
2018-04-30T22:34:15.866Z,0.87
2018-04-30T22:36:43.429Z,0.90
2018-04-30T22:39:10.937Z,0.77
2018-04-30T22:41:39.247Z,0.70
2018-04-30T22:44:06.778Z,0.80
2018-04-30T22:46:35.061Z,0.97
2018-04-30T22:49:03.357Z,0.63
2018-04-30T22:51:30.937Z,0.80
2018-04-30T22:53:58.443Z,1.17
2018-04-30T22:56:25.972Z,0.90
2018-04-30T22:58:53.490Z,1.00
2018-04-30T23:01:21.797Z,0.80
2018-04-30T23:03:49.364Z,1.00
2018-04-30T23:06:16.892Z,1.07
2018-04-30T23:08:45.170Z,1.13
2018-04-30T23:11:13.469Z,1.23
2018-04-30T23:13:41.044Z,1.40
2018-04-30T23:16:08.584Z,1.27
2018-04-30T23:18:36.099Z,1.40
2018-04-30T23:21:03.631Z,0.83
2018-04-30T23:23:31.147Z,1.03
2018-04-30T23:25:59.456Z,1.00
2018-04-30T23:28:26.977Z,0.90
2018-04-30T23:30:54.508Z,1.00
2018-04-30T23:33:22.026Z,0.90
2018-04-30T23:35:49.565Z,0.90
2018-04-30T23:38:17.080Z,0.70
2018-04-30T23:40:44.732Z,0.70
2018-04-30T23:43:12.248Z,0.80
2018-04-30T23:45:40.572Z,1.00
2018-04-30T23:48:08.132Z,0.80
2018-04-30T23:50:35.653Z,0.83
2018-04-30T23:53:03.953Z,0.80
2018-04-30T23:55:31.479Z,0.70
2018-04-30T23:57:59.012Z,0.77
